createdAt,value
2018-05-02T00:02:14.096Z,94799.91
2018-05-02T00:04:40.420Z,94806.20
2018-05-02T00:07:06.835Z,94803.30
2018-05-02T00:09:33.283Z,94800.36
2018-05-02T00:11:59.641Z,94803.25
2018-05-02T00:14:26.005Z,94794.38
2018-05-02T00:16:52.383Z,94792.98
2018-05-02T00:19:18.727Z,94793.51
2018-05-02T00:21:45.077Z,94788.67
2018-05-02T00:24:11.487Z,94792.53
2018-05-02T00:26:37.800Z,94792.11
2018-05-02T00:29:04.172Z,94794.45
2018-05-02T00:31:30.609Z,94783.14
2018-05-02T00:33:57.057Z,94786.09
2018-05-02T00:36:28.729Z,94791.08
2018-05-02T00:38:55.109Z,94791.55
2018-05-02T00:41:21.428Z,94791.77
2018-05-02T00:43:47.826Z,94785.02
2018-05-02T00:46:14.196Z,94782.58
2018-05-02T00:48:40.566Z,94785.77
2018-05-02T00:51:07.010Z,94787.17
2018-05-02T00:53:33.407Z,94784.69
2018-05-02T00:55:59.792Z,94786.97
2018-05-02T00:58:26.108Z,94782.00
2018-05-02T01:00:52.431Z,94779.28
2018-05-02T01:03:18.860Z,94789.98
2018-05-02T01:05:45.195Z,94798.31
2018-05-02T01:08:11.566Z,94804.18
2018-05-02T01:10:37.945Z,94797.52
2018-05-02T01:13:04.473Z,94795.27
2018-05-02T01:15:30.842Z,94795.98
2018-05-02T01:17:57.192Z,94799.11
2018-05-02T01:20:23.529Z,94805.77
2018-05-02T01:22:50.218Z,94800.47
2018-05-02T01:25:16.576Z,94798.59
2018-05-02T01:27:42.924Z,94799.02
2018-05-02T01:30:09.293Z,94797.41
2018-05-02T01:32:35.689Z,94800.91
2018-05-02T01:35:02.018Z,94809.10
2018-05-02T01:37:28.390Z,94798.96
2018-05-02T01:39:54.736Z,94789.31
2018-05-02T01:42:21.124Z,94797.98
2018-05-02T01:44:47.489Z,94798.80
2018-05-02T01:47:13.833Z,94798.59
2018-05-02T01:49:40.193Z,94794.74
2018-05-02T01:52:06.564Z,94797.46
2018-05-02T01:54:32.938Z,94785.81
2018-05-02T01:56:59.252Z,94795.01
2018-05-02T01:59:25.615Z,94792.42
2018-05-02T02:01:52.015Z,94785.44
2018-05-02T02:04:18.438Z,94789.72
2018-05-02T02:06:44.755Z,94786.91
2018-05-02T02:09:11.138Z,94790.45
2018-05-02T02:11:37.476Z,94786.44
2018-05-02T02:14:04.052Z,94791.95
2018-05-02T02:16:30.425Z,94782.83
2018-05-02T02:18:56.738Z,94780.11
2018-05-02T02:21:23.109Z,94787.97
2018-05-02T02:23:49.641Z,94790.41
2018-05-02T02:26:16.077Z,94786.84
2018-05-02T02:28:42.475Z,94794.58
2018-05-02T02:31:08.842Z,94795.51
2018-05-02T02:33:35.309Z,94794.91
2018-05-02T02:36:01.657Z,94795.95
2018-05-02T02:38:28.021Z,94786.37
2018-05-02T02:40:54.396Z,94791.70
2018-05-02T02:43:20.810Z,94801.36
2018-05-02T02:45:47.197Z,94811.16
2018-05-02T02:48:13.718Z,94811.75
2018-05-02T02:50:40.056Z,94812.80
2018-05-02T02:53:06.435Z,94817.86
2018-05-02T02:55:32.759Z,94816.71
2018-05-02T02:57:59.179Z,94828.50
2018-05-02T03:00:25.567Z,94822.88
2018-05-02T03:02:51.955Z,94808.95
2018-05-02T03:05:18.324Z,94822.13
2018-05-02T03:07:44.753Z,94823.56
2018-05-02T03:10:11.140Z,94823.34
2018-05-02T03:12:37.534Z,94827.64
2018-05-02T03:15:04.198Z,94825.67
2018-05-02T03:17:30.603Z,94834.53
2018-05-02T03:19:56.997Z,94825.78
2018-05-02T03:22:23.381Z,94827.67
2018-05-02T03:24:49.830Z,94833.13
2018-05-02T03:27:16.203Z,94839.32
2018-05-02T03:29:42.574Z,94842.34
2018-05-02T03:32:08.939Z,94831.59
2018-05-02T03:34:35.296Z,94836.17
2018-05-02T03:37:01.700Z,94842.83
2018-05-02T03:39:28.067Z,94836.61
2018-05-02T03:41:54.511Z,94833.08
2018-05-02T03:44:20.940Z,94833.73
2018-05-02T03:46:47.259Z,94833.52
2018-05-02T03:49:13.596Z,94840.39
2018-05-02T03:51:39.944Z,94840.19
2018-05-02T03:54:06.313Z,94849.41
2018-05-02T03:56:32.705Z,94842.41
2018-05-02T03:58:59.086Z,94849.17
2018-05-02T04:01:25.491Z,94853.08
2018-05-02T04:03:51.821Z,94851.02
2018-05-02T04:06:18.146Z,94852.52
2018-05-02T04:08:44.579Z,94855.26
2018-05-02T04:11:10.903Z,94850.27
2018-05-02T04:13:37.373Z,94848.64
2018-05-02T04:16:03.719Z,94847.34
2018-05-02T04:18:30.088Z,94850.14
2018-05-02T04:20:56.559Z,94845.86
2018-05-02T04:23:22.925Z,94849.98
2018-05-02T04:25:49.332Z,94856.36
2018-05-02T04:28:15.685Z,94851.23
2018-05-02T04:30:42.060Z,94865.62
2018-05-02T04:33:08.391Z,94864.03
2018-05-02T04:35:34.708Z,94862.27
2018-05-02T04:38:01.075Z,94860.55
2018-05-02T04:40:27.409Z,94863.02
2018-05-02T04:42:53.771Z,94860.53
2018-05-02T04:45:20.248Z,94851.30
2018-05-02T04:47:46.648Z,94860.59
2018-05-02T04:50:13.008Z,94858.88
2018-05-02T04:52:39.422Z,94858.15
2018-05-02T04:55:05.773Z,94853.52
2018-05-02T04:57:32.101Z,94854.60
2018-05-02T04:59:58.460Z,94846.53
2018-05-02T05:02:24.847Z,94841.82
2018-05-02T05:04:51.269Z,94838.44
2018-05-02T05:07:17.764Z,94836.06
2018-05-02T05:09:44.257Z,94848.13
2018-05-02T05:12:10.693Z,94854.47
2018-05-02T05:14:37.164Z,94861.63
2018-05-02T05:17:03.714Z,94847.17
2018-05-02T05:19:30.061Z,94858.49
2018-05-02T05:21:56.418Z,94851.66
2018-05-02T05:24:22.868Z,94834.11
2018-05-02T05:26:50.201Z,94859.28
2018-05-02T05:29:16.576Z,94836.23
2018-05-02T05:31:42.964Z,94848.05
2018-05-02T05:34:09.331Z,94860.05
2018-05-02T05:36:35.698Z,94853.39
2018-05-02T05:39:02.071Z,94855.55
2018-05-02T05:41:28.426Z,94840.77
2018-05-02T05:43:54.771Z,94854.79
2018-05-02T05:46:21.201Z,94851.19
2018-05-02T05:48:47.641Z,94850.88
2018-05-02T05:51:14.062Z,94852.67
2018-05-02T05:53:40.396Z,94849.13
2018-05-02T05:56:06.849Z,94855.14
2018-05-02T05:58:33.217Z,94855.05
2018-05-02T06:00:59.595Z,94869.77
2018-05-02T06:03:25.984Z,94870.45
2018-05-02T06:05:52.507Z,94861.00
2018-05-02T06:08:19.017Z,94867.65
2018-05-02T06:10:45.431Z,94850.34
2018-05-02T06:13:11.812Z,94869.70
2018-05-02T06:15:38.567Z,94851.47
2018-05-02T06:18:05.035Z,94852.82
2018-05-02T06:20:31.505Z,94858.56
2018-05-02T06:22:58.063Z,94854.53
2018-05-02T06:25:24.536Z,94857.18
2018-05-02T06:27:51.409Z,94850.07
2018-05-02T06:30:18.062Z,94854.42
2018-05-02T06:32:44.989Z,94852.38
2018-05-02T06:35:11.478Z,94849.92
2018-05-02T06:37:37.909Z,94844.67
2018-05-02T06:40:04.337Z,94844.27
2018-05-02T06:42:30.757Z,94843.05
2018-05-02T06:44:57.923Z,94843.47
2018-05-02T06:47:24.842Z,94844.44
2018-05-02T06:49:51.523Z,94834.79
2018-05-02T06:52:18.557Z,94843.58
2018-05-02T06:54:45.482Z,94837.62
2018-05-02T06:57:12.366Z,94844.70
2018-05-02T06:59:38.957Z,94848.77
2018-05-02T07:02:05.580Z,94844.42
2018-05-02T07:04:31.945Z,94849.73
2018-05-02T07:06:58.409Z,94847.25
2018-05-02T07:09:24.944Z,94848.83
2018-05-02T07:11:51.400Z,94840.80
2018-05-02T07:14:17.816Z,94841.23
2018-05-02T07:16:44.254Z,94844.03
2018-05-02T07:19:10.640Z,94849.58
2018-05-02T07:24:13.121Z,94847.13
2018-05-02T07:26:40.323Z,94831.74
2018-05-02T07:29:07.178Z,94833.00
2018-05-02T07:31:34.151Z,94830.84
2018-05-02T07:34:00.786Z,94820.84
2018-05-02T07:36:27.701Z,94836.14
2018-05-02T07:38:54.395Z,94834.42
2018-05-02T07:41:20.893Z,94828.30
2018-05-02T07:43:48.055Z,94824.83
2018-05-02T07:46:15.064Z,94823.88
2018-05-02T07:48:42.621Z,94804.11
2018-05-02T07:51:09.159Z,94807.84
2018-05-02T07:53:35.714Z,94814.57
2018-05-02T07:56:02.309Z,94817.03
2018-05-02T07:58:28.841Z,94812.96
2018-05-02T08:00:55.665Z,94808.45
2018-05-02T08:03:22.231Z,94805.80
2018-05-02T08:05:48.974Z,94805.33
2018-05-02T08:08:16.585Z,94803.09
2018-05-02T08:10:44.070Z,94804.53
2018-05-02T08:13:11.956Z,94782.48
2018-05-02T08:15:39.829Z,94791.70
2018-05-02T08:18:06.687Z,94786.93
2018-05-02T08:20:38.478Z,94778.38
2018-05-02T08:23:05.709Z,94789.98
2018-05-02T08:25:32.221Z,94785.01
2018-05-02T08:27:58.827Z,94776.67
2018-05-02T08:30:25.727Z,94780.74
2018-05-02T08:32:52.428Z,94782.98
2018-05-02T08:35:19.228Z,94766.55
2018-05-02T08:37:45.762Z,94786.33
2018-05-02T08:40:13.643Z,94765.13
2018-05-02T08:42:40.355Z,94775.48
2018-05-02T08:45:09.257Z,94767.27
2018-05-02T08:47:36.325Z,94755.41
2018-05-02T08:50:08.068Z,94765.75
2018-05-02T08:52:34.910Z,94767.66
2018-05-02T08:55:01.804Z,94751.19
2018-05-02T08:57:28.829Z,94756.48
2018-05-02T08:59:55.719Z,94769.21
2018-05-02T09:02:22.764Z,94746.84
2018-05-02T09:04:49.520Z,94774.06
2018-05-02T09:07:16.036Z,94768.42
2018-05-02T09:09:43.505Z,94767.34
2018-05-02T09:12:09.848Z,94742.78
2018-05-02T09:14:36.335Z,94771.48
2018-05-02T09:17:03.105Z,94760.00
2018-05-02T09:19:29.487Z,94760.94
2018-05-02T09:21:56.869Z,94764.39
2018-05-02T09:24:23.645Z,94753.83
2018-05-02T09:26:50.287Z,94747.08
2018-05-02T09:29:16.904Z,94754.66
2018-05-02T09:31:43.393Z,94749.16
2018-05-02T09:34:09.825Z,94738.72
2018-05-02T09:36:36.264Z,94749.91
2018-05-02T09:39:02.772Z,94736.03
2018-05-02T09:41:29.193Z,94743.98
2018-05-02T09:43:55.598Z,94736.04
2018-05-02T09:46:21.971Z,94736.77
2018-05-02T09:48:48.373Z,94730.42
2018-05-02T09:51:14.768Z,94723.52
2018-05-02T09:53:41.171Z,94730.97
2018-05-02T09:56:08.187Z,94730.97
2018-05-02T09:58:35.280Z,94719.27
2018-05-02T10:01:02.647Z,94729.48
2018-05-02T10:03:29.827Z,94715.89
2018-05-02T10:05:56.562Z,94714.31
2018-05-02T10:08:23.522Z,94698.86
2018-05-02T10:10:50.594Z,94712.89
2018-05-02T10:13:17.635Z,94701.28
2018-05-02T10:15:44.151Z,94713.97
2018-05-02T10:18:10.977Z,94691.33
2018-05-02T10:20:37.831Z,94683.47
2018-05-02T10:23:04.290Z,94711.28
2018-05-02T10:25:30.756Z,94704.28
2018-05-02T10:27:57.499Z,94677.52
2018-05-02T10:30:24.125Z,94689.88
2018-05-02T10:32:50.758Z,94695.77
2018-05-02T10:35:17.110Z,94686.81
2018-05-02T10:37:43.612Z,94677.58
2018-05-02T10:40:10.173Z,94682.45
2018-05-02T10:42:36.807Z,94667.41
2018-05-02T10:45:03.266Z,94682.23
2018-05-02T10:47:29.680Z,94692.48
2018-05-02T10:49:56.123Z,94682.65
2018-05-02T10:52:22.554Z,94679.83
2018-05-02T10:54:48.993Z,94681.95
2018-05-02T10:57:15.397Z,94683.67
2018-05-02T10:59:41.835Z,94648.25
2018-05-02T11:02:08.220Z,94676.90
2018-05-02T11:04:34.742Z,94657.42
2018-05-02T11:07:01.080Z,94673.69
2018-05-02T11:09:27.537Z,94668.48
2018-05-02T11:11:54.008Z,94671.79
2018-05-02T11:14:20.654Z,94673.69
2018-05-02T11:16:47.398Z,94649.03
2018-05-02T11:19:13.900Z,94657.27
2018-05-02T11:21:40.305Z,94668.89
2018-05-02T11:24:06.777Z,94656.84
2018-05-02T11:26:33.164Z,94664.86
2018-05-02T11:28:59.690Z,94649.98
2018-05-02T11:31:26.080Z,94653.85
2018-05-02T11:33:52.546Z,94653.03
2018-05-02T11:36:19.024Z,94639.03
2018-05-02T11:38:45.526Z,94652.49
2018-05-02T11:41:12.222Z,94642.81
2018-05-02T11:43:38.635Z,94622.17
2018-05-02T11:46:05.433Z,94612.50
2018-05-02T11:48:31.830Z,94627.30
2018-05-02T11:50:58.358Z,94612.58
2018-05-02T11:53:25.359Z,94611.75
2018-05-02T11:55:51.963Z,94605.65
2018-05-02T11:58:18.352Z,94601.88
2018-05-02T12:00:45.058Z,94594.30
2018-05-02T12:03:11.443Z,94588.72
2018-05-02T12:05:38.410Z,94604.41
2018-05-02T12:08:04.842Z,94571.72
2018-05-02T12:10:31.265Z,94583.61
2018-05-02T12:12:57.641Z,94587.02
2018-05-02T12:15:24.090Z,94590.37
2018-05-02T12:17:50.617Z,94578.03
2018-05-02T12:20:17.406Z,94557.41
2018-05-02T12:22:43.811Z,94587.62
2018-05-02T12:25:10.170Z,94577.08
2018-05-02T12:27:36.615Z,94572.67
2018-05-02T12:30:03.012Z,94573.38
2018-05-02T12:32:29.456Z,94564.55
2018-05-02T12:34:56.590Z,94572.75
2018-05-02T12:37:23.024Z,94576.22
2018-05-02T12:39:49.405Z,94571.05
2018-05-02T12:42:15.854Z,94561.86
2018-05-02T12:44:42.685Z,94550.29
2018-05-02T12:47:09.416Z,94540.64
2018-05-02T12:49:35.882Z,94548.11
2018-05-02T12:52:02.464Z,94539.47
2018-05-02T12:54:28.871Z,94542.00
2018-05-02T12:56:55.790Z,94515.73
2018-05-02T12:59:24.242Z,94532.00
2018-05-02T13:01:51.336Z,94542.22
2018-05-02T13:04:18.259Z,94530.47
2018-05-02T13:06:45.179Z,94536.70
2018-05-02T13:09:11.930Z,94534.41
2018-05-02T13:11:38.783Z,94529.89
2018-05-02T13:14:05.613Z,94530.83
2018-05-02T13:16:32.353Z,94512.09
2018-05-02T13:18:59.053Z,94530.77
2018-05-02T13:21:25.773Z,94521.08
2018-05-02T13:23:53.027Z,94519.23
2018-05-02T13:26:20.204Z,94531.54
2018-05-02T13:28:46.825Z,94540.41
2018-05-02T13:31:13.325Z,94523.78
2018-05-02T13:33:39.957Z,94535.11
2018-05-02T13:36:09.177Z,94523.83
2018-05-02T13:38:36.214Z,94527.47
2018-05-02T13:41:03.072Z,94521.47
2018-05-02T13:43:29.581Z,94524.45
2018-05-02T13:45:56.607Z,94521.84
2018-05-02T13:48:23.075Z,94520.13
2018-05-02T13:50:50.305Z,94518.05
2018-05-02T13:53:16.842Z,94509.31
2018-05-02T13:55:43.440Z,94527.64
2018-05-02T13:58:10.423Z,94523.42
2018-05-02T14:00:37.350Z,94523.36
2018-05-02T14:03:04.369Z,94526.65
2018-05-02T14:05:31.602Z,94516.25
2018-05-02T14:07:58.503Z,94537.52
2018-05-02T14:10:25.311Z,94525.12
2018-05-02T14:12:52.091Z,94529.25
2018-05-02T14:15:19.105Z,94521.67
2018-05-02T14:17:45.572Z,94537.72
2018-05-02T14:20:12.175Z,94535.30
2018-05-02T14:22:38.843Z,94543.52
2018-05-02T14:25:05.854Z,94545.22
2018-05-02T14:27:32.640Z,94552.53
2018-05-02T14:29:59.140Z,94559.62
2018-05-02T14:32:26.472Z,94555.94
2018-05-02T14:34:53.116Z,94547.23
2018-05-02T14:37:19.520Z,94559.34
2018-05-02T14:39:47.574Z,94561.58
2018-05-02T14:42:14.192Z,94566.22
2018-05-02T14:44:40.886Z,94573.67
2018-05-02T14:47:07.572Z,94574.50
2018-05-02T14:49:34.151Z,94574.91
2018-05-02T14:52:00.627Z,94570.16
2018-05-02T14:54:28.129Z,94551.27
2018-05-02T14:56:54.597Z,94563.05
2018-05-02T14:59:21.244Z,94565.03
2018-05-02T15:01:47.643Z,94552.94
2018-05-02T15:04:14.125Z,94570.38
2018-05-02T15:06:40.642Z,94546.83
2018-05-02T15:09:07.076Z,94567.02
2018-05-02T15:11:33.788Z,94573.90
2018-05-02T15:14:00.139Z,94565.80
2018-05-02T15:16:26.520Z,94574.42
2018-05-02T15:18:52.912Z,94566.41
2018-05-02T15:21:19.811Z,94572.95
2018-05-02T15:23:46.233Z,94577.59
2018-05-02T15:26:12.601Z,94582.13
2018-05-02T15:28:39.008Z,94584.59
2018-05-02T15:31:05.593Z,94558.39
2018-05-02T15:33:31.924Z,94592.83
2018-05-02T15:35:58.368Z,94596.83
2018-05-02T15:38:24.827Z,94594.88
2018-05-02T15:40:51.470Z,94602.48
2018-05-02T15:43:17.871Z,94586.47
2018-05-02T15:45:44.357Z,94587.30
2018-05-02T15:48:10.735Z,94603.99
2018-05-02T15:50:37.778Z,94598.05
2018-05-02T15:53:04.213Z,94610.99
2018-05-02T15:55:30.629Z,94605.09
2018-05-02T15:57:57.032Z,94607.91
2018-05-02T16:00:23.496Z,94613.45
2018-05-02T16:02:49.827Z,94610.02
2018-05-02T16:05:16.286Z,94607.09
2018-05-02T16:07:42.620Z,94609.95
2018-05-02T16:10:09.017Z,94606.91
2018-05-02T16:12:35.524Z,94615.25
2018-05-02T16:15:01.863Z,94611.95
2018-05-02T16:17:28.248Z,94608.16
2018-05-02T16:19:54.591Z,94611.63
2018-05-02T16:22:20.953Z,94614.41
2018-05-02T16:24:47.289Z,94611.16
2018-05-02T16:27:13.738Z,94604.16
2018-05-02T16:29:40.069Z,94605.10
2018-05-02T16:32:06.664Z,94606.94
2018-05-02T16:34:33.098Z,94618.84
2018-05-02T16:36:59.499Z,94619.03
2018-05-02T16:39:25.921Z,94616.70
2018-05-02T16:41:52.247Z,94614.52
2018-05-02T16:44:18.749Z,94618.30
2018-05-02T16:46:45.142Z,94626.81
2018-05-02T16:49:11.459Z,94630.14
2018-05-02T16:51:37.888Z,94637.42
2018-05-02T16:54:04.335Z,94623.78
2018-05-02T16:56:30.681Z,94635.31
2018-05-02T16:58:57.224Z,94637.14
2018-05-02T17:01:23.571Z,94629.36
2018-05-02T17:03:49.933Z,94630.31
2018-05-02T17:06:16.391Z,94620.59
2018-05-02T17:08:42.896Z,94617.34
2018-05-02T17:11:09.335Z,94621.13
2018-05-02T17:13:35.768Z,94625.73
2018-05-02T17:16:02.094Z,94626.21
2018-05-02T17:18:28.654Z,94631.28
2018-05-02T17:20:54.985Z,94615.40
2018-05-02T17:23:21.470Z,94630.00
2018-05-02T17:25:47.798Z,94633.03
2018-05-02T17:28:14.218Z,94626.72
2018-05-02T17:30:40.576Z,94626.09
2018-05-02T17:33:06.932Z,94623.41
2018-05-02T17:35:33.293Z,94622.16
2018-05-02T17:37:59.700Z,94619.16
2018-05-02T17:40:26.124Z,94629.00
2018-05-02T17:42:52.489Z,94623.32
2018-05-02T17:45:18.944Z,94630.44
2018-05-02T17:47:45.388Z,94610.20
2018-05-02T17:50:11.773Z,94626.31
2018-05-02T17:52:38.374Z,94631.02
2018-05-02T17:55:04.900Z,94630.66
2018-05-02T17:57:31.269Z,94618.44
2018-05-02T17:59:57.591Z,94624.05
2018-05-02T18:02:23.909Z,94622.16
2018-05-02T18:04:50.336Z,94624.89
2018-05-02T18:07:16.718Z,94629.46
2018-05-02T18:09:43.065Z,94626.31
2018-05-02T18:12:09.388Z,94624.05
2018-05-02T18:14:35.744Z,94624.14
2018-05-02T18:17:02.396Z,94637.22
2018-05-02T18:19:28.737Z,94639.33
2018-05-02T18:21:55.173Z,94637.98
2018-05-02T18:24:21.533Z,94647.38
2018-05-02T18:26:47.860Z,94642.20
2018-05-02T18:29:14.271Z,94639.77
2018-05-02T18:31:40.615Z,94651.34
2018-05-02T18:34:07.015Z,94662.62
2018-05-02T18:36:33.385Z,94665.02
2018-05-02T18:38:59.692Z,94668.61
2018-05-02T18:41:26.061Z,94665.51
2018-05-02T18:43:52.383Z,94671.53
2018-05-02T18:46:18.752Z,94679.16
2018-05-02T18:48:45.077Z,94686.50
2018-05-02T18:51:11.440Z,94687.86
2018-05-02T18:53:37.770Z,94686.31
2018-05-02T18:56:04.149Z,94684.39
2018-05-02T18:58:30.531Z,94678.63
2018-05-02T19:00:56.828Z,94684.80
2018-05-02T19:03:23.208Z,94679.16
2018-05-02T19:05:49.544Z,94683.03
2018-05-02T19:08:15.866Z,94690.92
2018-05-02T19:10:42.192Z,94686.49
2018-05-02T19:13:08.558Z,94684.41
2018-05-02T19:15:35.004Z,94694.61
2018-05-02T19:18:01.324Z,94693.31
2018-05-02T19:20:27.706Z,94691.77
2018-05-02T19:22:54.098Z,94684.83
2018-05-02T19:25:20.412Z,94699.77
2018-05-02T19:27:46.773Z,94694.56
2018-05-02T19:30:13.089Z,94699.38
2018-05-02T19:32:39.478Z,94682.68
2018-05-02T19:35:05.906Z,94701.02
2018-05-02T19:37:32.223Z,94696.73
2018-05-02T19:40:00.355Z,94675.48
2018-05-02T19:42:26.743Z,94697.62
2018-05-02T19:44:53.318Z,94691.72
2018-05-02T19:47:19.679Z,94694.30
2018-05-02T19:49:46.016Z,94690.11
2018-05-02T19:52:12.478Z,94701.44
2018-05-02T19:54:38.849Z,94692.27
2018-05-02T19:57:05.658Z,94688.08
2018-05-02T19:59:31.944Z,94686.22
2018-05-02T20:01:58.307Z,94683.32
2018-05-02T20:04:24.659Z,94669.64
2018-05-02T20:06:51.173Z,94680.19
2018-05-02T20:09:17.504Z,94665.30
2018-05-02T20:11:43.948Z,94684.88
2018-05-02T20:14:10.388Z,94683.98
2018-05-02T20:16:36.754Z,94666.88
2018-05-02T20:19:03.173Z,94689.30
2018-05-02T20:21:29.897Z,94690.50
2018-05-02T20:23:56.362Z,94678.81
2018-05-02T20:26:22.767Z,94683.03
2018-05-02T20:28:49.396Z,94682.42
2018-05-02T20:31:15.770Z,94667.34
2018-05-02T20:33:42.092Z,94680.98
2018-05-02T20:36:08.502Z,94656.18
2018-05-02T20:38:34.826Z,94680.19
2018-05-02T20:41:01.217Z,94679.23
2018-05-02T20:43:27.536Z,94678.06
2018-05-02T20:45:53.865Z,94676.30
2018-05-02T20:48:20.567Z,94680.92
2018-05-02T20:50:46.949Z,94673.91
2018-05-02T20:53:13.339Z,94671.69
2018-05-02T20:55:39.654Z,94673.91
2018-05-02T20:58:06.089Z,94681.66
2018-05-02T21:00:32.474Z,94660.19
2018-05-02T21:02:58.848Z,94681.93
2018-05-02T21:05:25.191Z,94677.04
2018-05-02T21:07:51.507Z,94682.82
2018-05-02T21:10:17.837Z,94676.43
2018-05-02T21:12:44.155Z,94680.71
2018-05-02T21:15:10.535Z,94681.06
2018-05-02T21:17:36.858Z,94691.09
2018-05-02T21:20:03.248Z,94697.95
2018-05-02T21:22:29.631Z,94690.36
2018-05-02T21:24:56.018Z,94687.68
2018-05-02T21:27:22.409Z,94693.95
2018-05-02T21:29:48.732Z,94702.16
2018-05-02T21:32:15.056Z,94695.97
2018-05-02T21:34:41.385Z,94677.55
2018-05-02T21:37:07.715Z,94692.58
2018-05-02T21:39:34.109Z,94705.16
2018-05-02T21:42:00.452Z,94700.41
2018-05-02T21:44:26.815Z,94696.52
2018-05-02T21:46:53.144Z,94701.27
2018-05-02T21:49:19.534Z,94697.86
2018-05-02T21:51:45.854Z,94707.25
2018-05-02T21:54:12.248Z,94696.78
2018-05-02T21:56:38.666Z,94710.08
2018-05-02T21:59:04.975Z,94698.95
2018-05-02T22:01:31.361Z,94708.39
2018-05-02T22:03:57.699Z,94713.81
2018-05-02T22:06:24.146Z,94706.95
2018-05-02T22:08:50.552Z,94703.35
2018-05-02T22:11:16.888Z,94707.31
2018-05-02T22:13:43.239Z,94694.12
2018-05-02T22:16:09.571Z,94696.87
2018-05-02T22:18:35.941Z,94706.81
2018-05-02T22:21:02.299Z,94706.81
2018-05-02T22:23:28.905Z,94705.11
2018-05-02T22:25:55.271Z,94704.85
2018-05-02T22:28:21.618Z,94697.52
2018-05-02T22:30:47.935Z,94705.41
2018-05-02T22:33:14.276Z,94705.73
2018-05-02T22:35:40.622Z,94700.07
2018-05-02T22:38:07.261Z,94691.89
2018-05-02T22:40:33.906Z,94686.18
2018-05-02T22:43:00.271Z,94691.48
2018-05-02T22:45:26.603Z,94687.32
2018-05-02T22:47:52.926Z,94681.44
2018-05-02T22:50:19.361Z,94686.66
2018-05-02T22:52:45.897Z,94674.42
2018-05-02T22:55:12.273Z,94682.72
2018-05-02T22:57:38.612Z,94664.84
2018-05-02T23:00:04.960Z,94670.47
2018-05-02T23:02:31.426Z,94671.70
2018-05-02T23:04:57.744Z,94665.44
2018-05-02T23:07:24.191Z,94660.16
2018-05-02T23:09:50.805Z,94665.67
2018-05-02T23:12:17.461Z,94672.70
2018-05-02T23:14:44.077Z,94671.50
2018-05-02T23:17:10.760Z,94667.75
2018-05-02T23:19:37.220Z,94667.08
2018-05-02T23:22:03.543Z,94663.41
2018-05-02T23:24:29.899Z,94668.16
2018-05-02T23:26:56.306Z,94667.95
2018-05-02T23:29:22.971Z,94661.16
2018-05-02T23:31:49.392Z,94657.61
2018-05-02T23:34:15.949Z,94657.03
2018-05-02T23:36:42.302Z,94643.90
2018-05-02T23:39:08.695Z,94661.28
2018-05-02T23:41:35.063Z,94647.41
2018-05-02T23:44:01.496Z,94653.80
2018-05-02T23:46:27.860Z,94651.78
2018-05-02T23:48:54.330Z,94658.75
2018-05-02T23:51:20.843Z,94654.42
2018-05-02T23:53:47.156Z,94660.66
2018-05-02T23:56:13.681Z,94643.66
2018-05-02T23:58:40.137Z,94652.63
